sensor_id;sensor_type;location;lat;lon;timestamp;P1;durP1;ratioP1;P2;durP2;ratioP2
37983;SDS011;64625;50.882;4.376;2022-11-20T00:01:04;60.00;;;31.20;;
37983;SDS011;64625;50.882;4.376;2022-11-20T00:03:34;51.58;;;27.10;;
37983;SDS011;64625;50.882;4.376;2022-11-20T00:06:01;56.70;;;28.65;;
37983;SDS011;64625;50.882;4.376;2022-11-20T00:08:28;63.78;;;31.35;;
37983;SDS011;64625;50.882;4.376;2022-11-20T00:10:54;63.50;;;30.70;;
37983;SDS011;64625;50.882;4.376;2022-11-20T00:13:20;56.40;;;30.83;;
37983;SDS011;64625;50.882;4.376;2022-11-20T00:15:46;59.70;;;31.00;;
37983;SDS011;64625;50.882;4.376;2022-11-20T00:18:11;61.67;;;31.52;;
37983;SDS011;64625;50.882;4.376;2022-11-20T00:20:37;51.38;;;26.60;;
37983;SDS011;64625;50.882;4.376;2022-11-20T00:23:03;57.50;;;30.60;;
37983;SDS011;64625;50.882;4.376;2022-11-20T00:25:28;55.42;;;27.63;;
37983;SDS011;64625;50.882;4.376;2022-11-20T00:27:54;59.75;;;27.40;;
37983;SDS011;64625;50.882;4.376;2022-11-20T00:30:20;54.58;;;27.58;;
37983;SDS011;64625;50.882;4.376;2022-11-20T00:32:46;55.40;;;29.00;;
37983;SDS011;64625;50.882;4.376;2022-11-20T00:35:11;61.22;;;30.77;;
37983;SDS011;64625;50.882;4.376;2022-11-20T00:37:37;62.97;;;28.98;;
37983;SDS011;64625;50.882;4.376;2022-11-20T00:40:06;55.60;;;28.90;;
37983;SDS011;64625;50.882;4.376;2022-11-20T00:42:32;55.17;;;28.35;;
37983;SDS011;64625;50.882;4.376;2022-11-20T00:44:58;62.90;;;29.67;;
37983;SDS011;64625;50.882;4.376;2022-11-20T00:47:24;56.17;;;29.30;;
37983;SDS011;64625;50.882;4.376;2022-11-20T00:49:50;67.00;;;31.05;;
37983;SDS011;64625;50.882;4.376;2022-11-20T00:52:19;62.33;;;28.70;;
37983;SDS011;64625;50.882;4.376;2022-11-20T00:54:44;55.03;;;29.90;;
37983;SDS011;64625;50.882;4.376;2022-11-20T00:57:10;62.47;;;31.95;;
37983;SDS011;64625;50.882;4.376;2022-11-20T00:59:36;65.72;;;29.80;;
37983;SDS011;64625;50.882;4.376;2022-11-20T01:02:02;69.18;;;33.58;;
37983;SDS011;64625;50.882;4.376;2022-11-20T01:04:27;69.18;;;29.10;;
37983;SDS011;64625;50.882;4.376;2022-11-20T01:06:54;62.83;;;31.20;;
37983;SDS011;64625;50.882;4.376;2022-11-20T01:09:20;66.68;;;30.27;;
37983;SDS011;64625;50.882;4.376;2022-11-20T01:11:46;65.15;;;32.17;;
37983;SDS011;64625;50.882;4.376;2022-11-20T01:14:13;59.33;;;31.33;;
37983;SDS011;64625;50.882;4.376;2022-11-20T01:16:42;57.88;;;29.15;;
37983;SDS011;64625;50.882;4.376;2022-11-20T01:19:11;58.83;;;30.35;;
37983;SDS011;64625;50.882;4.376;2022-11-20T01:21:40;57.45;;;28.95;;
37983;SDS011;64625;50.882;4.376;2022-11-20T01:24:07;60.53;;;30.02;;
37983;SDS011;64625;50.882;4.376;2022-11-20T01:26:37;59.20;;;33.85;;
37983;SDS011;64625;50.882;4.376;2022-11-20T01:29:05;60.50;;;30.73;;
37983;SDS011;64625;50.882;4.376;2022-11-20T01:31:38;67.68;;;31.95;;
37983;SDS011;64625;50.882;4.376;2022-11-20T01:34:05;61.58;;;30.60;;
37983;SDS011;64625;50.882;4.376;2022-11-20T01:36:33;72.57;;;30.13;;
37983;SDS011;64625;50.882;4.376;2022-11-20T01:39:06;54.22;;;32.03;;
37983;SDS011;64625;50.882;4.376;2022-11-20T01:41:35;61.63;;;30.38;;
37983;SDS011;64625;50.882;4.376;2022-11-20T01:44:21;61.00;;;29.90;;
37983;SDS011;64625;50.882;4.376;2022-11-20T01:47:07;65.07;;;32.67;;
37983;SDS011;64625;50.882;4.376;2022-11-20T01:49:42;67.07;;;32.83;;
37983;SDS011;64625;50.882;4.376;2022-11-20T01:55:12;62.72;;;32.78;;
37983;SDS011;64625;50.882;4.376;2022-11-20T01:57:42;68.47;;;33.95;;
37983;SDS011;64625;50.882;4.376;2022-11-20T02:00:12;71.40;;;33.17;;
37983;SDS011;64625;50.882;4.376;2022-11-20T02:02:44;72.93;;;33.65;;
37983;SDS011;64625;50.882;4.376;2022-11-20T02:05:24;68.18;;;36.65;;
37983;SDS011;64625;50.882;4.376;2022-11-20T02:07:57;68.20;;;34.65;;
37983;SDS011;64625;50.882;4.376;2022-11-20T02:10:25;71.63;;;35.75;;
37983;SDS011;64625;50.882;4.376;2022-11-20T02:12:52;73.82;;;34.80;;
37983;SDS011;64625;50.882;4.376;2022-11-20T02:15:36;82.40;;;34.67;;
37983;SDS011;64625;50.882;4.376;2022-11-20T02:18:02;65.07;;;34.00;;
37983;SDS011;64625;50.882;4.376;2022-11-20T02:20:30;64.68;;;35.30;;
37983;SDS011;64625;50.882;4.376;2022-11-20T02:23:03;74.70;;;34.38;;
37983;SDS011;64625;50.882;4.376;2022-11-20T02:25:33;67.55;;;35.53;;
37983;SDS011;64625;50.882;4.376;2022-11-20T02:28:01;81.53;;;34.67;;
37983;SDS011;64625;50.882;4.376;2022-11-20T02:30:28;62.70;;;33.00;;
37983;SDS011;64625;50.882;4.376;2022-11-20T02:32:53;68.90;;;32.83;;
37983;SDS011;64625;50.882;4.376;2022-11-20T02:38:04;69.88;;;31.88;;
37983;SDS011;64625;50.882;4.376;2022-11-20T02:40:30;76.03;;;34.30;;
37983;SDS011;64625;50.882;4.376;2022-11-20T02:42:56;70.95;;;32.47;;
37983;SDS011;64625;50.882;4.376;2022-11-20T02:45:22;64.50;;;33.72;;
37983;SDS011;64625;50.882;4.376;2022-11-20T02:47:49;73.65;;;36.88;;
37983;SDS011;64625;50.882;4.376;2022-11-20T02:50:16;70.88;;;34.20;;
37983;SDS011;64625;50.882;4.376;2022-11-20T02:52:42;71.70;;;32.92;;
37983;SDS011;64625;50.882;4.376;2022-11-20T02:55:07;69.05;;;34.03;;
37983;SDS011;64625;50.882;4.376;2022-11-20T02:57:33;59.67;;;30.20;;
37983;SDS011;64625;50.882;4.376;2022-11-20T02:59:59;52.65;;;29.27;;
37983;SDS011;64625;50.882;4.376;2022-11-20T03:02:25;63.72;;;31.33;;
37983;SDS011;64625;50.882;4.376;2022-11-20T03:04:54;57.13;;;29.67;;
37983;SDS011;64625;50.882;4.376;2022-11-20T03:07:20;52.90;;;29.52;;
37983;SDS011;64625;50.882;4.376;2022-11-20T03:09:45;56.47;;;29.92;;
37983;SDS011;64625;50.882;4.376;2022-11-20T03:12:11;64.70;;;30.33;;
37983;SDS011;64625;50.882;4.376;2022-11-20T03:14:37;59.03;;;28.80;;
37983;SDS011;64625;50.882;4.376;2022-11-20T03:17:02;55.58;;;27.38;;
37983;SDS011;64625;50.882;4.376;2022-11-20T03:19:28;52.80;;;31.05;;
37983;SDS011;64625;50.882;4.376;2022-11-20T03:21:54;51.22;;;28.73;;
37983;SDS011;64625;50.882;4.376;2022-11-20T03:24:20;49.38;;;26.88;;
37983;SDS011;64625;50.882;4.376;2022-11-20T03:26:46;50.17;;;27.08;;
37983;SDS011;64625;50.882;4.376;2022-11-20T03:29:11;54.28;;;28.92;;
37983;SDS011;64625;50.882;4.376;2022-11-20T03:31:38;51.17;;;27.40;;
37983;SDS011;64625;50.882;4.376;2022-11-20T03:34:08;51.45;;;26.58;;
37983;SDS011;64625;50.882;4.376;2022-11-20T03:36:39;55.85;;;27.25;;
37983;SDS011;64625;50.882;4.376;2022-11-20T03:39:05;50.88;;;27.00;;
37983;SDS011;64625;50.882;4.376;2022-11-20T03:41:34;54.28;;;27.75;;
37983;SDS011;64625;50.882;4.376;2022-11-20T03:44:02;53.33;;;25.77;;
37983;SDS011;64625;50.882;4.376;2022-11-20T03:46:29;59.97;;;27.10;;
37983;SDS011;64625;50.882;4.376;2022-11-20T03:48:55;55.75;;;27.98;;
37983;SDS011;64625;50.882;4.376;2022-11-20T03:51:22;52.42;;;24.42;;
37983;SDS011;64625;50.882;4.376;2022-11-20T03:53:50;50.03;;;27.10;;
37983;SDS011;64625;50.882;4.376;2022-11-20T03:56:19;60.28;;;30.48;;
37983;SDS011;64625;50.882;4.376;2022-11-20T03:58:47;57.17;;;28.33;;
37983;SDS011;64625;50.882;4.376;2022-11-20T04:01:13;54.83;;;26.73;;
37983;SDS011;64625;50.882;4.376;2022-11-20T04:03:42;56.65;;;26.73;;
37983;SDS011;64625;50.882;4.376;2022-11-20T04:06:15;49.80;;;25.60;;
37983;SDS011;64625;50.882;4.376;2022-11-20T04:08:46;55.42;;;25.83;;
37983;SDS011;64625;50.882;4.376;2022-11-20T04:11:13;58.05;;;26.58;;
37983;SDS011;64625;50.882;4.376;2022-11-20T04:13:48;52.22;;;25.70;;
37983;SDS011;64625;50.882;4.376;2022-11-20T04:16:16;49.30;;;28.98;;
37983;SDS011;64625;50.882;4.376;2022-11-20T04:18:43;47.75;;;26.15;;
37983;SDS011;64625;50.882;4.376;2022-11-20T04:21:09;56.30;;;26.08;;
37983;SDS011;64625;50.882;4.376;2022-11-20T04:23:36;54.13;;;27.00;;
37983;SDS011;64625;50.882;4.376;2022-11-20T04:26:09;52.33;;;26.75;;
37983;SDS011;64625;50.882;4.376;2022-11-20T04:28:36;51.78;;;25.70;;
37983;SDS011;64625;50.882;4.376;2022-11-20T04:31:07;51.45;;;25.85;;
37983;SDS011;64625;50.882;4.376;2022-11-20T04:33:34;55.45;;;27.30;;
37983;SDS011;64625;50.882;4.376;2022-11-20T04:36:05;60.03;;;29.20;;
37983;SDS011;64625;50.882;4.376;2022-11-20T04:38:33;55.22;;;27.27;;
37983;SDS011;64625;50.882;4.376;2022-11-20T04:41:00;52.55;;;26.60;;
37983;SDS011;64625;50.882;4.376;2022-11-20T04:43:27;54.83;;;26.63;;
37983;SDS011;64625;50.882;4.376;2022-11-20T04:45:53;56.92;;;27.95;;
37983;SDS011;64625;50.882;4.376;2022-11-20T04:48:20;54.13;;;28.38;;
37983;SDS011;64625;50.882;4.376;2022-11-20T04:50:46;65.10;;;30.23;;
37983;SDS011;64625;50.882;4.376;2022-11-20T04:53:12;59.65;;;27.38;;
37983;SDS011;64625;50.882;4.376;2022-11-20T04:55:38;59.92;;;30.35;;
37983;SDS011;64625;50.882;4.376;2022-11-20T04:58:03;57.85;;;28.52;;
37983;SDS011;64625;50.882;4.376;2022-11-20T05:00:29;51.78;;;27.08;;
37983;SDS011;64625;50.882;4.376;2022-11-20T05:02:55;65.90;;;29.52;;
37983;SDS011;64625;50.882;4.376;2022-11-20T05:05:21;58.72;;;27.48;;
37983;SDS011;64625;50.882;4.376;2022-11-20T05:07:46;53.90;;;24.80;;
37983;SDS011;64625;50.882;4.376;2022-11-20T05:10:12;52.08;;;27.05;;
37983;SDS011;64625;50.882;4.376;2022-11-20T05:12:38;54.00;;;26.60;;
37983;SDS011;64625;50.882;4.376;2022-11-20T05:15:04;56.30;;;27.75;;
37983;SDS011;64625;50.882;4.376;2022-11-20T05:17:29;66.68;;;30.17;;
37983;SDS011;64625;50.882;4.376;2022-11-20T05:19:55;74.93;;;32.35;;
37983;SDS011;64625;50.882;4.376;2022-11-20T05:22:21;71.93;;;29.30;;
37983;SDS011;64625;50.882;4.376;2022-11-20T05:24:47;69.30;;;30.52;;
37983;SDS011;64625;50.882;4.376;2022-11-20T05:27:13;62.13;;;28.50;;
37983;SDS011;64625;50.882;4.376;2022-11-20T05:29:38;54.38;;;28.90;;
37983;SDS011;64625;50.882;4.376;2022-11-20T05:32:04;67.97;;;30.38;;
37983;SDS011;64625;50.882;4.376;2022-11-20T05:34:32;65.97;;;30.13;;
37983;SDS011;64625;50.882;4.376;2022-11-20T05:36:58;99.55;;;32.80;;
37983;SDS011;64625;50.882;4.376;2022-11-20T05:39:23;73.80;;;28.88;;
37983;SDS011;64625;50.882;4.376;2022-11-20T05:41:49;70.95;;;30.77;;
37983;SDS011;64625;50.882;4.376;2022-11-20T05:44:35;72.60;;;30.13;;
37983;SDS011;64625;50.882;4.376;2022-11-20T05:47:01;77.65;;;32.95;;
37983;SDS011;64625;50.882;4.376;2022-11-20T05:49:26;71.10;;;31.40;;
37983;SDS011;64625;50.882;4.376;2022-11-20T05:51:52;76.97;;;31.20;;
37983;SDS011;64625;50.882;4.376;2022-11-20T05:54:18;82.97;;;33.28;;
37983;SDS011;64625;50.882;4.376;2022-11-20T05:56:43;92.80;;;34.10;;
37983;SDS011;64625;50.882;4.376;2022-11-20T05:59:09;92.88;;;37.30;;
37983;SDS011;64625;50.882;4.376;2022-11-20T06:01:35;78.57;;;32.50;;
37983;SDS011;64625;50.882;4.376;2022-11-20T06:04:01;83.25;;;30.23;;
37983;SDS011;64625;50.882;4.376;2022-11-20T06:06:27;69.30;;;29.98;;
37983;SDS011;64625;50.882;4.376;2022-11-20T06:08:54;75.30;;;34.22;;
37983;SDS011;64625;50.882;4.376;2022-11-20T06:11:20;81.30;;;33.10;;
37983;SDS011;64625;50.882;4.376;2022-11-20T06:13:46;79.75;;;31.02;;
37983;SDS011;64625;50.882;4.376;2022-11-20T06:16:14;83.93;;;32.95;;
37983;SDS011;64625;50.882;4.376;2022-11-20T06:18:42;80.35;;;30.40;;
37983;SDS011;64625;50.882;4.376;2022-11-20T06:21:15;77.15;;;30.52;;
37983;SDS011;64625;50.882;4.376;2022-11-20T06:23:45;84.32;;;34.50;;
37983;SDS011;64625;50.882;4.376;2022-11-20T06:26:17;75.22;;;31.85;;
37983;SDS011;64625;50.882;4.376;2022-11-20T06:28:47;75.25;;;35.13;;
37983;SDS011;64625;50.882;4.376;2022-11-20T06:31:14;75.80;;;29.55;;
37983;SDS011;64625;50.882;4.376;2022-11-20T06:33:41;91.40;;;34.83;;
37983;SDS011;64625;50.882;4.376;2022-11-20T06:36:09;83.97;;;33.15;;
37983;SDS011;64625;50.882;4.376;2022-11-20T06:38:36;77.22;;;30.58;;
37983;SDS011;64625;50.882;4.376;2022-11-20T06:41:03;76.07;;;31.25;;
37983;SDS011;64625;50.882;4.376;2022-11-20T06:43:29;77.90;;;31.50;;
37983;SDS011;64625;50.882;4.376;2022-11-20T06:45:56;82.35;;;32.88;;
37983;SDS011;64625;50.882;4.376;2022-11-20T06:48:23;80.03;;;32.95;;
37983;SDS011;64625;50.882;4.376;2022-11-20T06:50:50;81.22;;;33.05;;
37983;SDS011;64625;50.882;4.376;2022-11-20T06:53:16;82.22;;;32.55;;
37983;SDS011;64625;50.882;4.376;2022-11-20T06:55:43;85.72;;;32.33;;
37983;SDS011;64625;50.882;4.376;2022-11-20T06:58:10;80.97;;;32.17;;
37983;SDS011;64625;50.882;4.376;2022-11-20T07:00:36;86.72;;;35.90;;
37983;SDS011;64625;50.882;4.376;2022-11-20T07:03:05;90.47;;;32.17;;
37983;SDS011;64625;50.882;4.376;2022-11-20T07:05:34;80.75;;;31.80;;
37983;SDS011;64625;50.882;4.376;2022-11-20T07:08:01;82.78;;;31.60;;
37983;SDS011;64625;50.882;4.376;2022-11-20T07:10:27;93.78;;;36.03;;
37983;SDS011;64625;50.882;4.376;2022-11-20T07:12:53;77.95;;;30.13;;
37983;SDS011;64625;50.882;4.376;2022-11-20T07:15:20;80.35;;;33.20;;
37983;SDS011;64625;50.882;4.376;2022-11-20T07:17:47;87.47;;;30.88;;
37983;SDS011;64625;50.882;4.376;2022-11-20T07:20:14;84.90;;;32.90;;
37983;SDS011;64625;50.882;4.376;2022-11-20T07:22:40;78.32;;;31.80;;
37983;SDS011;64625;50.882;4.376;2022-11-20T07:25:06;88.00;;;32.00;;
37983;SDS011;64625;50.882;4.376;2022-11-20T07:27:32;95.55;;;34.47;;
37983;SDS011;64625;50.882;4.376;2022-11-20T07:29:59;86.45;;;34.40;;
37983;SDS011;64625;50.882;4.376;2022-11-20T07:32:25;93.57;;;35.35;;
37983;SDS011;64625;50.882;4.376;2022-11-20T07:34:51;83.75;;;33.47;;
37983;SDS011;64625;50.882;4.376;2022-11-20T07:37:17;86.03;;;35.28;;
37983;SDS011;64625;50.882;4.376;2022-11-20T07:39:43;97.78;;;33.00;;
37983;SDS011;64625;50.882;4.376;2022-11-20T07:42:09;79.20;;;33.97;;
37983;SDS011;64625;50.882;4.376;2022-11-20T07:44:35;86.40;;;32.60;;
37983;SDS011;64625;50.882;4.376;2022-11-20T07:47:01;87.25;;;31.63;;
37983;SDS011;64625;50.882;4.376;2022-11-20T07:49:27;82.18;;;32.47;;
37983;SDS011;64625;50.882;4.376;2022-11-20T07:51:53;80.18;;;30.13;;
37983;SDS011;64625;50.882;4.376;2022-11-20T07:54:19;80.18;;;32.75;;
37983;SDS011;64625;50.882;4.376;2022-11-20T07:56:45;86.68;;;31.10;;
37983;SDS011;64625;50.882;4.376;2022-11-20T07:59:12;72.03;;;30.27;;
37983;SDS011;64625;50.882;4.376;2022-11-20T08:01:38;76.75;;;31.70;;
37983;SDS011;64625;50.882;4.376;2022-11-20T08:04:04;83.57;;;31.45;;
37983;SDS011;64625;50.882;4.376;2022-11-20T08:06:31;86.72;;;32.15;;
37983;SDS011;64625;50.882;4.376;2022-11-20T08:08:56;84.07;;;31.70;;
37983;SDS011;64625;50.882;4.376;2022-11-20T08:11:25;73.55;;;30.67;;
37983;SDS011;64625;50.882;4.376;2022-11-20T08:14:09;79.80;;;31.48;;
37983;SDS011;64625;50.882;4.376;2022-11-20T08:16:38;85.63;;;32.40;;
37983;SDS011;64625;50.882;4.376;2022-11-20T08:19:05;74.40;;;28.65;;
37983;SDS011;64625;50.882;4.376;2022-11-20T08:21:32;80.90;;;32.17;;
37983;SDS011;64625;50.882;4.376;2022-11-20T08:23:58;71.55;;;28.95;;
37983;SDS011;64625;50.882;4.376;2022-11-20T08:26:26;66.65;;;28.02;;
37983;SDS011;64625;50.882;4.376;2022-11-20T08:28:55;70.90;;;29.30;;
37983;SDS011;64625;50.882;4.376;2022-11-20T08:31:22;78.88;;;31.92;;
37983;SDS011;64625;50.882;4.376;2022-11-20T08:33:49;66.78;;;25.85;;
37983;SDS011;64625;50.882;4.376;2022-11-20T08:36:15;63.30;;;26.23;;
37983;SDS011;64625;50.882;4.376;2022-11-20T08:38:42;68.38;;;27.23;;
37983;SDS011;64625;50.882;4.376;2022-11-20T08:41:13;66.00;;;25.80;;
37983;SDS011;64625;50.882;4.376;2022-11-20T08:44:01;67.95;;;27.35;;
37983;SDS011;64625;50.882;4.376;2022-11-20T08:46:39;79.60;;;28.58;;
37983;SDS011;64625;50.882;4.376;2022-11-20T08:49:08;79.10;;;29.33;;
37983;SDS011;64625;50.882;4.376;2022-11-20T08:51:35;78.57;;;29.58;;
37983;SDS011;64625;50.882;4.376;2022-11-20T08:54:02;77.47;;;25.85;;
37983;SDS011;64625;50.882;4.376;2022-11-20T08:56:28;88.18;;;31.10;;
37983;SDS011;64625;50.882;4.376;2022-11-20T08:58:54;84.55;;;28.85;;
37983;SDS011;64625;50.882;4.376;2022-11-20T09:01:20;67.40;;;27.23;;
37983;SDS011;64625;50.882;4.376;2022-11-20T09:03:48;81.63;;;29.10;;
37983;SDS011;64625;50.882;4.376;2022-11-20T09:06:14;83.88;;;28.30;;
37983;SDS011;64625;50.882;4.376;2022-11-20T09:08:41;91.97;;;30.40;;
37983;SDS011;64625;50.882;4.376;2022-11-20T09:11:07;67.38;;;26.70;;
37983;SDS011;64625;50.882;4.376;2022-11-20T09:13:34;72.80;;;29.88;;
37983;SDS011;64625;50.882;4.376;2022-11-20T09:16:07;87.75;;;29.08;;
37983;SDS011;64625;50.882;4.376;2022-11-20T09:18:34;80.95;;;27.05;;
37983;SDS011;64625;50.882;4.376;2022-11-20T09:21:05;66.57;;;26.67;;
37983;SDS011;64625;50.882;4.376;2022-11-20T09:23:35;77.57;;;25.83;;
37983;SDS011;64625;50.882;4.376;2022-11-20T09:26:03;70.05;;;28.20;;
37983;SDS011;64625;50.882;4.376;2022-11-20T09:28:29;70.68;;;26.58;;
37983;SDS011;64625;50.882;4.376;2022-11-20T09:30:56;67.63;;;27.55;;
37983;SDS011;64625;50.882;4.376;2022-11-20T09:33:23;62.33;;;25.80;;
37983;SDS011;64625;50.882;4.376;2022-11-20T09:35:49;66.22;;;25.80;;
37983;SDS011;64625;50.882;4.376;2022-11-20T09:38:14;68.85;;;26.35;;
37983;SDS011;64625;50.882;4.376;2022-11-20T09:40:43;61.55;;;25.38;;
37983;SDS011;64625;50.882;4.376;2022-11-20T09:43:18;63.20;;;25.85;;
37983;SDS011;64625;50.882;4.376;2022-11-20T09:56:37;57.40;;;22.55;;
37983;SDS011;64625;50.882;4.376;2022-11-20T10:00:09;56.60;;;24.25;;
37983;SDS011;64625;50.882;4.376;2022-11-20T10:04:49;71.93;;;32.70;;
37983;SDS011;64625;50.882;4.376;2022-11-20T10:26:42;47.90;;;17.10;;
37983;SDS011;64625;50.882;4.376;2022-11-20T10:29:47;43.17;;;17.45;;
37983;SDS011;64625;50.882;4.376;2022-11-20T10:32:27;32.05;;;15.25;;
37983;SDS011;64625;50.882;4.376;2022-11-20T10:38:05;30.30;;;13.73;;
37983;SDS011;64625;50.882;4.376;2022-11-20T10:40:41;25.85;;;13.15;;
37983;SDS011;64625;50.882;4.376;2022-11-20T10:43:19;25.80;;;11.75;;
37983;SDS011;64625;50.882;4.376;2022-11-20T10:45:56;22.50;;;10.70;;
37983;SDS011;64625;50.882;4.376;2022-11-20T10:48:33;40.67;;;12.70;;
37983;SDS011;64625;50.882;4.376;2022-11-20T10:54:18;25.40;;;9.60;;
37983;SDS011;64625;50.882;4.376;2022-11-20T10:56:56;25.27;;;8.98;;
37983;SDS011;64625;50.882;4.376;2022-11-20T11:02:21;19.73;;;8.57;;
37983;SDS011;64625;50.882;4.376;2022-11-20T11:04:57;31.10;;;7.90;;
37983;SDS011;64625;50.882;4.376;2022-11-20T11:07:37;22.27;;;8.50;;
37983;SDS011;64625;50.882;4.376;2022-11-20T11:10:15;17.05;;;7.28;;
37983;SDS011;64625;50.882;4.376;2022-11-20T11:13:00;17.10;;;7.10;;
37983;SDS011;64625;50.882;4.376;2022-11-20T11:15:28;16.88;;;6.65;;
37983;SDS011;64625;50.882;4.376;2022-11-20T11:18:01;19.83;;;8.43;;
37983;SDS011;64625;50.882;4.376;2022-11-20T11:20:26;15.25;;;7.13;;
37983;SDS011;64625;50.882;4.376;2022-11-20T11:22:53;16.38;;;8.10;;
37983;SDS011;64625;50.882;4.376;2022-11-20T11:25:23;21.00;;;6.40;;
37983;SDS011;64625;50.882;4.376;2022-11-20T11:27:50;12.93;;;5.95;;
37983;SDS011;64625;50.882;4.376;2022-11-20T11:30:18;14.40;;;5.60;;
37983;SDS011;64625;50.882;4.376;2022-11-20T11:32:45;26.60;;;5.95;;
37983;SDS011;64625;50.882;4.376;2022-11-20T11:35:22;17.95;;;5.75;;
37983;SDS011;64625;50.882;4.376;2022-11-20T11:37:54;16.55;;;5.25;;
37983;SDS011;64625;50.882;4.376;2022-11-20T11:40:29;12.77;;;4.53;;
37983;SDS011;64625;50.882;4.376;2022-11-20T11:42:58;11.85;;;5.63;;
37983;SDS011;64625;50.882;4.376;2022-11-20T11:46:04;10.95;;;5.93;;
37983;SDS011;64625;50.882;4.376;2022-11-20T11:57:00;19.08;;;6.32;;
37983;SDS011;64625;50.882;4.376;2022-11-20T12:16:23;13.05;;;4.93;;
37983;SDS011;64625;50.882;4.376;2022-11-20T12:18:50;18.55;;;4.63;;
37983;SDS011;64625;50.882;4.376;2022-11-20T12:24:06;14.50;;;4.43;;
37983;SDS011;64625;50.882;4.376;2022-11-20T12:40:56;11.93;;;4.25;;
37983;SDS011;64625;50.882;4.376;2022-11-20T12:46:51;12.95;;;;;
37983;SDS011;64625;50.882;4.376;2022-11-20T12:58:24;20.10;;;6.03;;
37983;SDS011;64625;50.882;4.376;2022-11-20T13:00:34;11.00;;;4.45;;
37983;SDS011;64625;50.882;4.376;2022-11-20T13:08:25;19.90;;;6.40;;
37983;SDS011;64625;50.882;4.376;2022-11-20T13:16:36;9.45;;;4.40;;
37983;SDS011;64625;50.882;4.376;2022-11-20T13:19:10;19.90;;;7.57;;
37983;SDS011;64625;50.882;4.376;2022-11-20T13:21:40;13.98;;;4.97;;
37983;SDS011;64625;50.882;4.376;2022-11-20T13:24:20;15.00;;;6.10;;
37983;SDS011;64625;50.882;4.376;2022-11-20T13:29:34;10.13;;;4.45;;
37983;SDS011;64625;50.882;4.376;2022-11-20T13:32:13;13.25;;;6.18;;
37983;SDS011;64625;50.882;4.376;2022-11-20T13:42:38;16.77;;;4.90;;
37983;SDS011;64625;50.882;4.376;2022-11-20T13:45:11;25.75;;;5.68;;
37983;SDS011;64625;50.882;4.376;2022-11-20T13:47:48;15.02;;;5.18;;
37983;SDS011;64625;50.882;4.376;2022-11-20T13:50:16;12.10;;;5.07;;
37983;SDS011;64625;50.882;4.376;2022-11-20T13:52:47;10.65;;;4.32;;
37983;SDS011;64625;50.882;4.376;2022-11-20T14:01:24;7.97;;;3.60;;
37983;SDS011;64625;50.882;4.376;2022-11-20T14:03:56;6.93;;;3.20;;
37983;SDS011;64625;50.882;4.376;2022-11-20T14:06:29;10.18;;;6.78;;
37983;SDS011;64625;50.882;4.376;2022-11-20T14:09:30;9.10;;;3.75;;
37983;SDS011;64625;50.882;4.376;2022-11-20T14:11:58;5.20;;;3.15;;
37983;SDS011;64625;50.882;4.376;2022-11-20T14:14:32;10.20;;;3.50;;
37983;SDS011;64625;50.882;4.376;2022-11-20T14:19:45;10.00;;;3.50;;
37983;SDS011;64625;50.882;4.376;2022-11-20T14:22:19;7.65;;;2.90;;
37983;SDS011;64625;50.882;4.376;2022-11-20T14:24:46;7.15;;;3.60;;
37983;SDS011;64625;50.882;4.376;2022-11-20T14:27:32;9.63;;;3.53;;
37983;SDS011;64625;50.882;4.376;2022-11-20T14:30:03;6.88;;;3.65;;
37983;SDS011;64625;50.882;4.376;2022-11-20T14:32:30;4.80;;;3.00;;
37983;SDS011;64625;50.882;4.376;2022-11-20T14:34:58;8.48;;;3.97;;
37983;SDS011;64625;50.882;4.376;2022-11-20T14:37:33;7.85;;;3.95;;
37983;SDS011;64625;50.882;4.376;2022-11-20T14:40:02;7.28;;;3.72;;
37983;SDS011;64625;50.882;4.376;2022-11-20T14:42:28;5.60;;;3.63;;
37983;SDS011;64625;50.882;4.376;2022-11-20T14:44:56;6.07;;;3.45;;
37983;SDS011;64625;50.882;4.376;2022-11-20T14:47:25;6.65;;;3.10;;
37983;SDS011;64625;50.882;4.376;2022-11-20T14:49:53;9.15;;;4.35;;
37983;SDS011;64625;50.882;4.376;2022-11-20T14:52:21;4.07;;;3.53;;
37983;SDS011;64625;50.882;4.376;2022-11-20T14:54:54;9.18;;;4.03;;
37983;SDS011;64625;50.882;4.376;2022-11-20T15:02:41;8.40;;;4.32;;
37983;SDS011;64625;50.882;4.376;2022-11-20T15:05:08;12.02;;;5.07;;
37983;SDS011;64625;50.882;4.376;2022-11-20T15:07:35;7.10;;;3.28;;
37983;SDS011;64625;50.882;4.376;2022-11-20T15:10:24;6.82;;;4.65;;
37983;SDS011;64625;50.882;4.376;2022-11-20T15:13:34;7.40;;;4.20;;
37983;SDS011;64625;50.882;4.376;2022-11-20T15:16:03;9.02;;;4.65;;
37983;SDS011;64625;50.882;4.376;2022-11-20T15:18:43;6.95;;;4.50;;
37983;SDS011;64625;50.882;4.376;2022-11-20T15:21:14;8.73;;;4.60;;
37983;SDS011;64625;50.882;4.376;2022-11-20T15:23:41;6.35;;;4.57;;
37983;SDS011;64625;50.882;4.376;2022-11-20T15:26:07;11.13;;;5.25;;
37983;SDS011;64625;50.882;4.376;2022-11-20T15:28:35;9.30;;;6.00;;
37983;SDS011;64625;50.882;4.376;2022-11-20T15:31:04;7.38;;;4.82;;
37983;SDS011;64625;50.882;4.376;2022-11-20T15:33:31;8.18;;;5.45;;
37983;SDS011;64625;50.882;4.376;2022-11-20T15:35:58;10.75;;;6.07;;
37983;SDS011;64625;50.882;4.376;2022-11-20T15:38:24;9.07;;;5.90;;
37983;SDS011;64625;50.882;4.376;2022-11-20T15:40:50;7.85;;;5.18;;
37983;SDS011;64625;50.882;4.376;2022-11-20T15:43:16;14.02;;;5.72;;
37983;SDS011;64625;50.882;4.376;2022-11-20T15:51:20;10.93;;;5.35;;
37983;SDS011;64625;50.882;4.376;2022-11-20T15:53:47;17.55;;;5.55;;
37983;SDS011;64625;50.882;4.376;2022-11-20T15:56:13;19.30;;;5.13;;
37983;SDS011;64625;50.882;4.376;2022-11-20T15:58:39;19.67;;;5.97;;
37983;SDS011;64625;50.882;4.376;2022-11-20T16:01:10;16.05;;;6.55;;
37983;SDS011;64625;50.882;4.376;2022-11-20T16:03:37;21.08;;;7.75;;
37983;SDS011;64625;50.882;4.376;2022-11-20T16:06:03;16.40;;;5.93;;
37983;SDS011;64625;50.882;4.376;2022-11-20T16:08:29;23.98;;;5.57;;
37983;SDS011;64625;50.882;4.376;2022-11-20T16:10:54;28.83;;;6.72;;
37983;SDS011;64625;50.882;4.376;2022-11-20T16:13:20;27.40;;;6.28;;
37983;SDS011;64625;50.882;4.376;2022-11-20T16:16:05;21.27;;;6.68;;
37983;SDS011;64625;50.882;4.376;2022-11-20T16:18:37;19.70;;;6.75;;
37983;SDS011;64625;50.882;4.376;2022-11-20T16:21:02;26.67;;;5.82;;
37983;SDS011;64625;50.882;4.376;2022-11-20T16:23:28;23.80;;;6.40;;
37983;SDS011;64625;50.882;4.376;2022-11-20T16:25:54;21.65;;;5.95;;
37983;SDS011;64625;50.882;4.376;2022-11-20T16:28:20;25.42;;;5.45;;
37983;SDS011;64625;50.882;4.376;2022-11-20T16:30:46;28.92;;;6.53;;
37983;SDS011;64625;50.882;4.376;2022-11-20T16:33:14;29.23;;;4.10;;
37983;SDS011;64625;50.882;4.376;2022-11-20T16:35:41;27.48;;;5.70;;
37983;SDS011;64625;50.882;4.376;2022-11-20T16:38:08;17.05;;;5.80;;
37983;SDS011;64625;50.882;4.376;2022-11-20T16:40:34;42.53;;;6.32;;
37983;SDS011;64625;50.882;4.376;2022-11-20T16:43:09;26.63;;;4.43;;
37983;SDS011;64625;50.882;4.376;2022-11-20T16:45:42;38.53;;;5.03;;
37983;SDS011;64625;50.882;4.376;2022-11-20T16:48:13;27.67;;;6.13;;
37983;SDS011;64625;50.882;4.376;2022-11-20T16:50:47;35.57;;;6.83;;
37983;SDS011;64625;50.882;4.376;2022-11-20T16:53:15;20.90;;;6.97;;
37983;SDS011;64625;50.882;4.376;2022-11-20T16:55:42;24.30;;;5.40;;
37983;SDS011;64625;50.882;4.376;2022-11-20T16:58:07;33.92;;;5.05;;
37983;SDS011;64625;50.882;4.376;2022-11-20T17:00:38;34.58;;;5.32;;